Current Weather

Easterwood Fld

College Station, Texas (KCLL)

Report from: Saturday, February 4, 2023 9:53 PM CST
Current time: Saturday, February 4, 2023 10:07 PM CST

Nearby weather
Weather history
Weather forecast

Temperature11.1°C (52.0°F)
Dew point7.2°C (45.0°F)
Winds 7 kts (3.6 m/s, 8.1 mph) South (170°)
Visibility10 mi. (16.1 km)
Clouds Sky clear
Altimeter30.25 in.Hg (1024 mB)
Relative humidity77 %
Density altitude-695 ft. (-212 m)
Sea-level pressure102.4 kPa (1024 mB, 30.25 in.Hg)
Remarks Fully automated report
Automated weather observing station with precipitation discriminator
Flight conditions Visual Meteorological Conditions
Raw dataKCLL 050353Z AUTO 17007KT 10SM CLR 11/07 A3025 RMK AO2 SLP243 T01110072
An unhandled exception has occurred. See browser dev tools for details. Reload 🗙